sensor_id;sensor_type;location;lat;lon;timestamp;P1;durP1;ratioP1;P2;durP2;ratioP2
19929;SDS011;10127;47.780;9.606;2022-10-23T00:01:20;20.48;;;3.08;;
19929;SDS011;10127;47.780;9.606;2022-10-23T00:03:57;7.20;;;2.70;;
19929;SDS011;10127;47.780;9.606;2022-10-23T00:06:26;9.85;;;2.88;;
19929;SDS011;10127;47.780;9.606;2022-10-23T00:08:53;17.40;;;3.03;;
19929;SDS011;10127;47.780;9.606;2022-10-23T00:11:20;12.43;;;3.13;;
19929;SDS011;10127;47.780;9.606;2022-10-23T00:13:48;8.05;;;2.70;;
19929;SDS011;10127;47.780;9.606;2022-10-23T00:16:14;4.18;;;2.55;;
19929;SDS011;10127;47.780;9.606;2022-10-23T00:18:40;7.80;;;2.80;;
19929;SDS011;10127;47.780;9.606;2022-10-23T00:21:07;6.35;;;2.90;;
19929;SDS011;10127;47.780;9.606;2022-10-23T00:23:34;10.52;;;2.67;;
19929;SDS011;10127;47.780;9.606;2022-10-23T00:26:00;16.45;;;6.80;;
19929;SDS011;10127;47.780;9.606;2022-10-23T00:28:26;19.40;;;7.85;;
19929;SDS011;10127;47.780;9.606;2022-10-23T00:30:52;13.68;;;4.63;;
19929;SDS011;10127;47.780;9.606;2022-10-23T00:33:17;14.93;;;2.85;;
19929;SDS011;10127;47.780;9.606;2022-10-23T00:35:43;9.02;;;3.28;;
19929;SDS011;10127;47.780;9.606;2022-10-23T00:38:09;5.70;;;2.80;;
19929;SDS011;10127;47.780;9.606;2022-10-23T00:40:35;9.57;;;2.70;;
19929;SDS011;10127;47.780;9.606;2022-10-23T00:43:01;10.25;;;2.88;;
19929;SDS011;10127;47.780;9.606;2022-10-23T00:45:28;5.47;;;2.78;;
19929;SDS011;10127;47.780;9.606;2022-10-23T00:47:57;12.60;;;2.60;;
19929;SDS011;10127;47.780;9.606;2022-10-23T00:50:25;10.40;;;2.50;;
19929;SDS011;10127;47.780;9.606;2022-10-23T00:52:53;6.28;;;2.88;;
19929;SDS011;10127;47.780;9.606;2022-10-23T00:55:21;4.93;;;3.00;;
19929;SDS011;10127;47.780;9.606;2022-10-23T00:57:49;14.30;;;2.75;;
19929;SDS011;10127;47.780;9.606;2022-10-23T01:00:18;8.18;;;2.40;;
19929;SDS011;10127;47.780;9.606;2022-10-23T01:02:44;10.45;;;2.63;;
19929;SDS011;10127;47.780;9.606;2022-10-23T01:05:09;8.23;;;2.92;;
19929;SDS011;10127;47.780;9.606;2022-10-23T01:07:38;9.90;;;2.23;;
19929;SDS011;10127;47.780;9.606;2022-10-23T01:13:07;10.85;;;3.10;;
19929;SDS011;10127;47.780;9.606;2022-10-23T01:15:43;10.13;;;2.83;;
19929;SDS011;10127;47.780;9.606;2022-10-23T01:21:17;9.85;;;2.42;;
19929;SDS011;10127;47.780;9.606;2022-10-23T01:29:41;5.35;;;2.35;;
19929;SDS011;10127;47.780;9.606;2022-10-23T01:32:19;9.90;;;2.63;;
19929;SDS011;10127;47.780;9.606;2022-10-23T01:34:56;7.57;;;2.90;;
19929;SDS011;10127;47.780;9.606;2022-10-23T01:37:41;9.38;;;2.33;;
19929;SDS011;10127;47.780;9.606;2022-10-23T01:40:13;13.80;;;2.70;;
19929;SDS011;10127;47.780;9.606;2022-10-23T01:42:47;5.00;;;2.80;;
19929;SDS011;10127;47.780;9.606;2022-10-23T01:45:18;7.95;;;2.42;;
19929;SDS011;10127;47.780;9.606;2022-10-23T01:47:49;6.03;;;2.73;;
19929;SDS011;10127;47.780;9.606;2022-10-23T01:50:16;5.63;;;2.60;;
19929;SDS011;10127;47.780;9.606;2022-10-23T01:52:44;6.28;;;2.22;;
19929;SDS011;10127;47.780;9.606;2022-10-23T01:55:10;7.30;;;2.40;;
19929;SDS011;10127;47.780;9.606;2022-10-23T01:57:37;10.93;;;2.65;;
19929;SDS011;10127;47.780;9.606;2022-10-23T02:00:06;6.03;;;2.65;;
19929;SDS011;10127;47.780;9.606;2022-10-23T02:02:34;9.20;;;2.67;;
19929;SDS011;10127;47.780;9.606;2022-10-23T02:05:04;11.43;;;2.33;;
19929;SDS011;10127;47.780;9.606;2022-10-23T02:07:53;9.17;;;2.37;;
19929;SDS011;10127;47.780;9.606;2022-10-23T02:10:19;13.23;;;2.15;;
19929;SDS011;10127;47.780;9.606;2022-10-23T02:21:54;7.10;;;2.10;;
19929;SDS011;10127;47.780;9.606;2022-10-23T02:26:59;6.13;;;2.45;;
19929;SDS011;10127;47.780;9.606;2022-10-23T02:29:28;3.78;;;2.38;;
19929;SDS011;10127;47.780;9.606;2022-10-23T02:31:57;8.55;;;2.40;;
19929;SDS011;10127;47.780;9.606;2022-10-23T02:34:23;9.20;;;2.80;;
19929;SDS011;10127;47.780;9.606;2022-10-23T02:36:49;7.07;;;2.50;;
19929;SDS011;10127;47.780;9.606;2022-10-23T02:39:15;6.38;;;2.13;;
19929;SDS011;10127;47.780;9.606;2022-10-23T02:41:45;8.07;;;2.40;;
19929;SDS011;10127;47.780;9.606;2022-10-23T02:50:08;5.45;;;2.15;;
19929;SDS011;10127;47.780;9.606;2022-10-23T03:13:32;7.67;;;1.93;;
19929;SDS011;10127;47.780;9.606;2022-10-23T03:15:58;5.90;;;2.07;;
19929;SDS011;10127;47.780;9.606;2022-10-23T03:18:24;11.33;;;2.10;;
19929;SDS011;10127;47.780;9.606;2022-10-23T03:20:49;11.05;;;2.10;;
19929;SDS011;10127;47.780;9.606;2022-10-23T03:23:15;6.05;;;2.22;;
19929;SDS011;10127;47.780;9.606;2022-10-23T03:25:40;6.45;;;1.88;;
19929;SDS011;10127;47.780;9.606;2022-10-23T03:28:06;4.10;;;2.30;;
19929;SDS011;10127;47.780;9.606;2022-10-23T03:30:31;12.80;;;2.10;;
19929;SDS011;10127;47.780;9.606;2022-10-23T03:32:57;14.43;;;2.33;;
19929;SDS011;10127;47.780;9.606;2022-10-23T03:35:24;12.83;;;2.30;;
19929;SDS011;10127;47.780;9.606;2022-10-23T03:37:49;5.53;;;2.00;;
19929;SDS011;10127;47.780;9.606;2022-10-23T03:40:15;6.63;;;1.50;;
19929;SDS011;10127;47.780;9.606;2022-10-23T03:42:41;9.47;;;2.00;;
19929;SDS011;10127;47.780;9.606;2022-10-23T03:45:06;9.47;;;2.17;;
19929;SDS011;10127;47.780;9.606;2022-10-23T03:47:32;6.72;;;1.90;;
19929;SDS011;10127;47.780;9.606;2022-10-23T03:49:59;13.70;;;2.80;;
19929;SDS011;10127;47.780;9.606;2022-10-23T03:52:25;13.35;;;2.53;;
19929;SDS011;10127;47.780;9.606;2022-10-23T03:54:51;12.48;;;2.45;;
19929;SDS011;10127;47.780;9.606;2022-10-23T03:57:17;7.40;;;2.00;;
19929;SDS011;10127;47.780;9.606;2022-10-23T03:59:42;14.80;;;2.50;;
19929;SDS011;10127;47.780;9.606;2022-10-23T04:02:08;7.90;;;2.30;;
19929;SDS011;10127;47.780;9.606;2022-10-23T04:04:34;4.03;;;2.10;;
19929;SDS011;10127;47.780;9.606;2022-10-23T04:06:59;5.00;;;2.33;;
19929;SDS011;10127;47.780;9.606;2022-10-23T04:09:25;5.43;;;2.37;;
19929;SDS011;10127;47.780;9.606;2022-10-23T04:11:51;6.43;;;2.17;;
19929;SDS011;10127;47.780;9.606;2022-10-23T04:14:16;5.73;;;2.47;;
19929;SDS011;10127;47.780;9.606;2022-10-23T04:16:42;5.27;;;2.10;;
19929;SDS011;10127;47.780;9.606;2022-10-23T04:19:07;10.30;;;2.40;;
19929;SDS011;10127;47.780;9.606;2022-10-23T04:21:33;4.73;;;2.10;;
19929;SDS011;10127;47.780;9.606;2022-10-23T04:23:59;4.77;;;2.27;;
19929;SDS011;10127;47.780;9.606;2022-10-23T04:26:24;5.47;;;2.10;;
19929;SDS011;10127;47.780;9.606;2022-10-23T04:28:50;4.57;;;2.37;;
19929;SDS011;10127;47.780;9.606;2022-10-23T04:31:15;2.07;;;1.80;;
19929;SDS011;10127;47.780;9.606;2022-10-23T04:33:41;5.90;;;2.33;;
19929;SDS011;10127;47.780;9.606;2022-10-23T04:36:07;5.40;;;1.73;;
19929;SDS011;10127;47.780;9.606;2022-10-23T04:38:33;3.78;;;2.15;;
19929;SDS011;10127;47.780;9.606;2022-10-23T04:40:59;12.83;;;2.13;;
19929;SDS011;10127;47.780;9.606;2022-10-23T04:43:24;11.63;;;2.87;;
19929;SDS011;10127;47.780;9.606;2022-10-23T04:45:50;3.13;;;2.07;;
19929;SDS011;10127;47.780;9.606;2022-10-23T04:48:16;3.53;;;2.30;;
19929;SDS011;10127;47.780;9.606;2022-10-23T04:50:42;6.13;;;2.63;;
19929;SDS011;10127;47.780;9.606;2022-10-23T04:53:07;4.13;;;2.27;;
19929;SDS011;10127;47.780;9.606;2022-10-23T04:55:33;10.60;;;2.63;;
19929;SDS011;10127;47.780;9.606;2022-10-23T04:57:59;6.30;;;2.07;;
19929;SDS011;10127;47.780;9.606;2022-10-23T05:00:24;6.23;;;2.07;;
19929;SDS011;10127;47.780;9.606;2022-10-23T05:02:50;3.90;;;2.60;;
19929;SDS011;10127;47.780;9.606;2022-10-23T05:05:16;5.97;;;2.43;;
19929;SDS011;10127;47.780;9.606;2022-10-23T05:07:42;3.83;;;2.23;;
19929;SDS011;10127;47.780;9.606;2022-10-23T05:10:07;7.60;;;2.40;;
19929;SDS011;10127;47.780;9.606;2022-10-23T05:12:33;11.93;;;3.20;;
19929;SDS011;10127;47.780;9.606;2022-10-23T05:14:59;6.63;;;2.53;;
19929;SDS011;10127;47.780;9.606;2022-10-23T05:17:30;9.03;;;2.50;;
19929;SDS011;10127;47.780;9.606;2022-10-23T05:19:59;8.00;;;3.15;;
19929;SDS011;10127;47.780;9.606;2022-10-23T05:22:29;4.33;;;2.70;;
19929;SDS011;10127;47.780;9.606;2022-10-23T05:24:57;9.77;;;2.60;;
19929;SDS011;10127;47.780;9.606;2022-10-23T05:27:25;7.20;;;2.37;;
19929;SDS011;10127;47.780;9.606;2022-10-23T05:29:51;6.93;;;2.70;;
19929;SDS011;10127;47.780;9.606;2022-10-23T05:32:17;5.13;;;2.97;;
19929;SDS011;10127;47.780;9.606;2022-10-23T05:34:43;18.90;;;2.93;;
19929;SDS011;10127;47.780;9.606;2022-10-23T05:37:09;11.60;;;3.70;;
19929;SDS011;10127;47.780;9.606;2022-10-23T05:39:38;14.63;;;3.47;;
19929;SDS011;10127;47.780;9.606;2022-10-23T05:42:03;7.50;;;3.13;;
19929;SDS011;10127;47.780;9.606;2022-10-23T05:44:29;6.83;;;3.10;;
19929;SDS011;10127;47.780;9.606;2022-10-23T05:46:55;14.40;;;6.83;;
19929;SDS011;10127;47.780;9.606;2022-10-23T05:49:22;9.53;;;4.43;;
19929;SDS011;10127;47.780;9.606;2022-10-23T05:51:48;12.83;;;5.20;;
19929;SDS011;10127;47.780;9.606;2022-10-23T05:54:14;10.17;;;4.77;;
19929;SDS011;10127;47.780;9.606;2022-10-23T05:56:39;10.07;;;4.73;;
19929;SDS011;10127;47.780;9.606;2022-10-23T05:59:05;9.07;;;4.20;;
19929;SDS011;10127;47.780;9.606;2022-10-23T06:01:32;10.73;;;4.43;;
19929;SDS011;10127;47.780;9.606;2022-10-23T06:03:58;6.30;;;3.53;;
19929;SDS011;10127;47.780;9.606;2022-10-23T06:06:25;12.77;;;3.37;;
19929;SDS011;10127;47.780;9.606;2022-10-23T06:08:50;7.60;;;2.67;;
19929;SDS011;10127;47.780;9.606;2022-10-23T06:11:16;4.10;;;2.30;;
19929;SDS011;10127;47.780;9.606;2022-10-23T06:13:42;5.43;;;2.50;;
19929;SDS011;10127;47.780;9.606;2022-10-23T06:16:17;15.40;;;2.80;;
19929;SDS011;10127;47.780;9.606;2022-10-23T06:18:44;6.60;;;2.03;;
19929;SDS011;10127;47.780;9.606;2022-10-23T06:21:10;10.30;;;2.30;;
19929;SDS011;10127;47.780;9.606;2022-10-23T06:23:37;5.57;;;1.90;;
19929;SDS011;10127;47.780;9.606;2022-10-23T06:26:05;4.27;;;2.00;;
19929;SDS011;10127;47.780;9.606;2022-10-23T06:28:31;5.07;;;2.10;;
19929;SDS011;10127;47.780;9.606;2022-10-23T06:30:57;7.37;;;2.77;;
19929;SDS011;10127;47.780;9.606;2022-10-23T06:33:23;4.83;;;1.63;;
19929;SDS011;10127;47.780;9.606;2022-10-23T06:35:48;3.77;;;2.00;;
19929;SDS011;10127;47.780;9.606;2022-10-23T06:38:14;8.87;;;2.03;;
19929;SDS011;10127;47.780;9.606;2022-10-23T06:40:40;5.77;;;2.23;;
19929;SDS011;10127;47.780;9.606;2022-10-23T06:43:05;7.10;;;2.37;;
19929;SDS011;10127;47.780;9.606;2022-10-23T06:45:33;6.23;;;2.63;;
19929;SDS011;10127;47.780;9.606;2022-10-23T06:47:59;7.73;;;2.40;;
19929;SDS011;10127;47.780;9.606;2022-10-23T06:50:25;9.90;;;2.23;;
19929;SDS011;10127;47.780;9.606;2022-10-23T06:52:54;17.10;;;3.23;;
19929;SDS011;10127;47.780;9.606;2022-10-23T06:55:20;7.27;;;2.70;;
19929;SDS011;10127;47.780;9.606;2022-10-23T06:57:47;9.45;;;2.28;;
19929;SDS011;10127;47.780;9.606;2022-10-23T07:00:12;8.83;;;2.27;;
19929;SDS011;10127;47.780;9.606;2022-10-23T07:02:38;8.43;;;3.08;;
19929;SDS011;10127;47.780;9.606;2022-10-23T07:05:04;7.13;;;2.22;;
19929;SDS011;10127;47.780;9.606;2022-10-23T07:07:30;6.23;;;2.50;;
19929;SDS011;10127;47.780;9.606;2022-10-23T07:09:56;9.40;;;2.67;;
19929;SDS011;10127;47.780;9.606;2022-10-23T07:12:22;8.60;;;4.30;;
19929;SDS011;10127;47.780;9.606;2022-10-23T07:14:47;11.83;;;2.80;;
19929;SDS011;10127;47.780;9.606;2022-10-23T07:17:13;10.20;;;2.93;;
19929;SDS011;10127;47.780;9.606;2022-10-23T07:19:38;8.27;;;2.50;;
19929;SDS011;10127;47.780;9.606;2022-10-23T07:22:04;11.10;;;2.33;;
19929;SDS011;10127;47.780;9.606;2022-10-23T07:24:30;10.17;;;2.50;;
19929;SDS011;10127;47.780;9.606;2022-10-23T07:27:00;10.55;;;2.72;;
19929;SDS011;10127;47.780;9.606;2022-10-23T07:29:27;10.45;;;2.47;;
19929;SDS011;10127;47.780;9.606;2022-10-23T07:31:52;7.25;;;2.10;;
19929;SDS011;10127;47.780;9.606;2022-10-23T07:34:18;2.63;;;2.00;;
19929;SDS011;10127;47.780;9.606;2022-10-23T07:36:44;2.92;;;2.00;;
19929;SDS011;10127;47.780;9.606;2022-10-23T07:39:09;5.72;;;2.00;;
19929;SDS011;10127;47.780;9.606;2022-10-23T07:41:35;11.48;;;2.53;;
19929;SDS011;10127;47.780;9.606;2022-10-23T07:44:01;7.32;;;2.03;;
19929;SDS011;10127;47.780;9.606;2022-10-23T07:46:27;5.40;;;1.70;;
19929;SDS011;10127;47.780;9.606;2022-10-23T07:48:52;11.05;;;1.98;;
19929;SDS011;10127;47.780;9.606;2022-10-23T07:51:18;2.72;;;1.95;;
19929;SDS011;10127;47.780;9.606;2022-10-23T07:53:43;6.85;;;1.83;;
19929;SDS011;10127;47.780;9.606;2022-10-23T07:56:13;5.22;;;1.60;;
19929;SDS011;10127;47.780;9.606;2022-10-23T07:58:41;9.38;;;2.30;;
19929;SDS011;10127;47.780;9.606;2022-10-23T08:01:28;4.75;;;1.50;;
19929;SDS011;10127;47.780;9.606;2022-10-23T08:03:56;3.45;;;1.98;;
19929;SDS011;10127;47.780;9.606;2022-10-23T08:06:22;5.82;;;2.15;;
19929;SDS011;10127;47.780;9.606;2022-10-23T08:08:47;4.90;;;2.05;;
19929;SDS011;10127;47.780;9.606;2022-10-23T08:11:13;7.80;;;2.35;;
19929;SDS011;10127;47.780;9.606;2022-10-23T08:13:41;3.22;;;2.17;;
19929;SDS011;10127;47.780;9.606;2022-10-23T08:16:08;9.90;;;2.08;;
19929;SDS011;10127;47.780;9.606;2022-10-23T08:18:33;10.50;;;1.90;;
19929;SDS011;10127;47.780;9.606;2022-10-23T08:21:00;3.63;;;2.47;;
19929;SDS011;10127;47.780;9.606;2022-10-23T08:23:27;5.57;;;1.90;;
19929;SDS011;10127;47.780;9.606;2022-10-23T08:25:57;8.00;;;2.17;;
19929;SDS011;10127;47.780;9.606;2022-10-23T08:28:27;4.55;;;2.10;;
19929;SDS011;10127;47.780;9.606;2022-10-23T08:30:53;14.93;;;2.45;;
19929;SDS011;10127;47.780;9.606;2022-10-23T08:33:19;3.58;;;1.80;;
19929;SDS011;10127;47.780;9.606;2022-10-23T08:35:46;4.32;;;2.20;;
19929;SDS011;10127;47.780;9.606;2022-10-23T08:38:11;7.28;;;2.05;;
19929;SDS011;10127;47.780;9.606;2022-10-23T08:40:37;3.42;;;2.20;;
19929;SDS011;10127;47.780;9.606;2022-10-23T08:51:05;4.07;;;2.15;;
19929;SDS011;10127;47.780;9.606;2022-10-23T08:56:11;8.23;;;1.70;;
19929;SDS011;10127;47.780;9.606;2022-10-23T08:58:46;6.05;;;2.38;;
19929;SDS011;10127;47.780;9.606;2022-10-23T09:04:04;3.88;;;2.30;;
19929;SDS011;10127;47.780;9.606;2022-10-23T09:06:34;4.00;;;2.33;;
19929;SDS011;10127;47.780;9.606;2022-10-23T09:12:11;4.88;;;2.20;;
19929;SDS011;10127;47.780;9.606;2022-10-23T09:17:45;2.45;;;2.10;;
19929;SDS011;10127;47.780;9.606;2022-10-23T09:22:38;3.78;;;2.17;;
19929;SDS011;10127;47.780;9.606;2022-10-23T09:25:10;3.65;;;1.83;;
19929;SDS011;10127;47.780;9.606;2022-10-23T09:27:47;2.42;;;2.05;;
19929;SDS011;10127;47.780;9.606;2022-10-23T09:30:28;3.33;;;2.28;;
19929;SDS011;10127;47.780;9.606;2022-10-23T09:32:58;3.75;;;2.00;;
19929;SDS011;10127;47.780;9.606;2022-10-23T09:35:26;4.32;;;1.80;;
19929;SDS011;10127;47.780;9.606;2022-10-23T09:37:54;3.53;;;2.35;;
19929;SDS011;10127;47.780;9.606;2022-10-23T09:40:35;4.68;;;2.10;;
19929;SDS011;10127;47.780;9.606;2022-10-23T09:43:14;4.78;;;2.00;;
19929;SDS011;10127;47.780;9.606;2022-10-23T09:45:41;6.70;;;1.83;;
19929;SDS011;10127;47.780;9.606;2022-10-23T09:48:12;3.42;;;1.75;;
19929;SDS011;10127;47.780;9.606;2022-10-23T09:50:52;4.85;;;1.98;;
19929;SDS011;10127;47.780;9.606;2022-10-23T09:58:57;6.72;;;2.10;;
19929;SDS011;10127;47.780;9.606;2022-10-23T10:01:33;3.00;;;1.92;;
19929;SDS011;10127;47.780;9.606;2022-10-23T10:04:09;2.05;;;1.80;;
19929;SDS011;10127;47.780;9.606;2022-10-23T10:06:34;2.20;;;1.65;;
19929;SDS011;10127;47.780;9.606;2022-10-23T10:09:09;5.75;;;1.75;;
19929;SDS011;10127;47.780;9.606;2022-10-23T10:14:17;10.73;;;2.22;;
19929;SDS011;10127;47.780;9.606;2022-10-23T10:22:10;6.45;;;1.90;;
19929;SDS011;10127;47.780;9.606;2022-10-23T10:25:18;4.78;;;1.77;;
19929;SDS011;10127;47.780;9.606;2022-10-23T10:33:56;7.07;;;1.63;;
19929;SDS011;10127;47.780;9.606;2022-10-23T10:44:40;3.33;;;1.55;;
19929;SDS011;10127;47.780;9.606;2022-10-23T10:47:37;11.10;;;1.88;;
19929;SDS011;10127;47.780;9.606;2022-10-23T10:50:35;2.97;;;1.52;;
19929;SDS011;10127;47.780;9.606;2022-10-23T10:53:20;5.50;;;1.63;;
19929;SDS011;10127;47.780;9.606;2022-10-23T10:55:51;1.88;;;1.30;;
19929;SDS011;10127;47.780;9.606;2022-10-23T10:58:20;3.17;;;1.33;;
19929;SDS011;10127;47.780;9.606;2022-10-23T11:00:54;3.63;;;2.00;;
19929;SDS011;10127;47.780;9.606;2022-10-23T11:05:54;5.30;;;1.75;;
19929;SDS011;10127;47.780;9.606;2022-10-23T11:11:49;6.00;;;1.80;;
19929;SDS011;10127;47.780;9.606;2022-10-23T11:13:57;3.38;;;1.48;;
19929;SDS011;10127;47.780;9.606;2022-10-23T11:16:25;5.38;;;1.73;;
19929;SDS011;10127;47.780;9.606;2022-10-23T11:27:16;5.68;;;1.60;;
19929;SDS011;10127;47.780;9.606;2022-10-23T11:35:29;8.18;;;1.67;;
19929;SDS011;10127;47.780;9.606;2022-10-23T11:38:17;4.50;;;1.23;;
19929;SDS011;10127;47.780;9.606;2022-10-23T11:40:49;2.75;;;1.63;;
19929;SDS011;10127;47.780;9.606;2022-10-23T11:43:33;4.25;;;1.10;;
19929;SDS011;10127;47.780;9.606;2022-10-23T11:46:28;5.95;;;2.40;;
19929;SDS011;10127;47.780;9.606;2022-10-23T11:48:59;4.47;;;1.65;;
19929;SDS011;10127;47.780;9.606;2022-10-23T11:51:39;2.17;;;1.60;;
19929;SDS011;10127;47.780;9.606;2022-10-23T11:56:34;6.93;;;1.40;;
19929;SDS011;10127;47.780;9.606;2022-10-23T12:04:51;3.03;;;1.42;;
19929;SDS011;10127;47.780;9.606;2022-10-23T12:09:54;5.63;;;1.45;;
19929;SDS011;10127;47.780;9.606;2022-10-23T12:17:42;3.00;;;1.40;;
19929;SDS011;10127;47.780;9.606;2022-10-23T12:25:16;2.28;;;1.75;;
19929;SDS011;10127;47.780;9.606;2022-10-23T12:28:26;6.70;;;1.60;;
19929;SDS011;10127;47.780;9.606;2022-10-23T12:33:43;5.25;;;1.40;;
19929;SDS011;10127;47.780;9.606;2022-10-23T12:39:00;7.18;;;1.63;;
19929;SDS011;10127;47.780;9.606;2022-10-23T12:41:29;2.42;;;1.35;;
19929;SDS011;10127;47.780;9.606;2022-10-23T12:43:58;2.20;;;1.35;;
19929;SDS011;10127;47.780;9.606;2022-10-23T12:46:39;5.32;;;1.80;;
19929;SDS011;10127;47.780;9.606;2022-10-23T12:49:14;2.92;;;1.48;;
19929;SDS011;10127;47.780;9.606;2022-10-23T12:51:41;6.22;;;2.08;;
19929;SDS011;10127;47.780;9.606;2022-10-23T12:54:15;5.03;;;1.92;;
19929;SDS011;10127;47.780;9.606;2022-10-23T12:56:41;2.83;;;1.65;;
19929;SDS011;10127;47.780;9.606;2022-10-23T12:59:16;3.38;;;1.60;;
19929;SDS011;10127;47.780;9.606;2022-10-23T13:01:56;2.35;;;1.40;;
19929;SDS011;10127;47.780;9.606;2022-10-23T13:06:51;6.78;;;1.30;;
19929;SDS011;10127;47.780;9.606;2022-10-23T13:09:23;4.75;;;1.60;;
19929;SDS011;10127;47.780;9.606;2022-10-23T13:12:03;4.13;;;1.13;;
19929;SDS011;10127;47.780;9.606;2022-10-23T13:17:00;4.60;;;1.63;;
19929;SDS011;10127;47.780;9.606;2022-10-23T13:19:27;4.80;;;1.70;;
19929;SDS011;10127;47.780;9.606;2022-10-23T13:21:53;8.48;;;1.70;;
19929;SDS011;10127;47.780;9.606;2022-10-23T13:24:19;2.78;;;1.80;;
19929;SDS011;10127;47.780;9.606;2022-10-23T13:26:46;3.00;;;1.75;;
19929;SDS011;10127;47.780;9.606;2022-10-23T13:29:19;8.55;;;1.60;;
19929;SDS011;10127;47.780;9.606;2022-10-23T13:31:49;3.60;;;1.42;;
19929;SDS011;10127;47.780;9.606;2022-10-23T13:34:16;3.80;;;1.80;;
19929;SDS011;10127;47.780;9.606;2022-10-23T13:36:50;6.20;;;2.00;;
19929;SDS011;10127;47.780;9.606;2022-10-23T13:39:35;2.92;;;1.40;;
19929;SDS011;10127;47.780;9.606;2022-10-23T13:42:08;2.95;;;1.33;;
19929;SDS011;10127;47.780;9.606;2022-10-23T13:44:37;4.10;;;1.42;;
19929;SDS011;10127;47.780;9.606;2022-10-23T13:47:03;5.60;;;1.38;;
19929;SDS011;10127;47.780;9.606;2022-10-23T13:49:29;5.22;;;1.17;;
19929;SDS011;10127;47.780;9.606;2022-10-23T13:51:55;9.88;;;1.17;;
19929;SDS011;10127;47.780;9.606;2022-10-23T13:56:48;8.50;;;1.20;;
19929;SDS011;10127;47.780;9.606;2022-10-23T13:59:14;4.93;;;1.10;;
19929;SDS011;10127;47.780;9.606;2022-10-23T14:01:41;3.03;;;1.20;;
19929;SDS011;10127;47.780;9.606;2022-10-23T14:04:07;7.03;;;1.25;;
19929;SDS011;10127;47.780;9.606;2022-10-23T14:06:33;2.60;;;1.63;;
19929;SDS011;10127;47.780;9.606;2022-10-23T14:09:01;2.70;;;1.60;;
19929;SDS011;10127;47.780;9.606;2022-10-23T14:11:27;3.67;;;1.35;;
19929;SDS011;10127;47.780;9.606;2022-10-23T14:13:53;3.08;;;1.67;;
19929;SDS011;10127;47.780;9.606;2022-10-23T14:16:19;3.35;;;1.67;;
19929;SDS011;10127;47.780;9.606;2022-10-23T14:18:45;8.40;;;2.13;;
19929;SDS011;10127;47.780;9.606;2022-10-23T14:21:12;3.22;;;1.45;;
19929;SDS011;10127;47.780;9.606;2022-10-23T14:23:39;9.38;;;2.35;;
19929;SDS011;10127;47.780;9.606;2022-10-23T14:26:06;4.32;;;1.83;;
19929;SDS011;10127;47.780;9.606;2022-10-23T14:28:34;3.80;;;1.65;;
19929;SDS011;10127;47.780;9.606;2022-10-23T14:31:03;3.28;;;1.88;;
19929;SDS011;10127;47.780;9.606;2022-10-23T14:33:30;13.52;;;2.00;;
19929;SDS011;10127;47.780;9.606;2022-10-23T14:35:56;6.60;;;2.17;;
19929;SDS011;10127;47.780;9.606;2022-10-23T14:38:21;11.93;;;2.10;;
19929;SDS011;10127;47.780;9.606;2022-10-23T14:40:47;8.23;;;2.08;;
19929;SDS011;10127;47.780;9.606;2022-10-23T14:43:13;8.00;;;2.92;;
19929;SDS011;10127;47.780;9.606;2022-10-23T14:45:38;2.80;;;1.70;;
19929;SDS011;10127;47.780;9.606;2022-10-23T14:48:04;9.98;;;2.05;;
19929;SDS011;10127;47.780;9.606;2022-10-23T14:50:30;8.55;;;2.70;;
19929;SDS011;10127;47.780;9.606;2022-10-23T14:52:59;10.05;;;2.47;;
19929;SDS011;10127;47.780;9.606;2022-10-23T14:55:24;5.20;;;1.75;;
19929;SDS011;10127;47.780;9.606;2022-10-23T14:57:53;4.57;;;1.85;;
19929;SDS011;10127;47.780;9.606;2022-10-23T15:00:20;5.15;;;1.88;;
19929;SDS011;10127;47.780;9.606;2022-10-23T15:02:45;5.07;;;2.22;;
19929;SDS011;10127;47.780;9.606;2022-10-23T15:05:11;5.13;;;2.03;;
19929;SDS011;10127;47.780;9.606;2022-10-23T15:07:37;2.50;;;1.80;;
19929;SDS011;10127;47.780;9.606;2022-10-23T15:10:04;4.15;;;2.20;;
19929;SDS011;10127;47.780;9.606;2022-10-23T15:12:30;4.20;;;2.53;;
19929;SDS011;10127;47.780;9.606;2022-10-23T15:14:55;6.78;;;2.25;;
19929;SDS011;10127;47.780;9.606;2022-10-23T15:17:21;3.92;;;2.40;;
19929;SDS011;10127;47.780;9.606;2022-10-23T15:19:47;5.50;;;2.20;;
19929;SDS011;10127;47.780;9.606;2022-10-23T15:22:12;8.55;;;2.00;;
19929;SDS011;10127;47.780;9.606;2022-10-23T15:24:38;7.45;;;1.98;;
19929;SDS011;10127;47.780;9.606;2022-10-23T15:27:03;7.70;;;2.00;;
19929;SDS011;10127;47.780;9.606;2022-10-23T15:29:29;3.35;;;2.10;;
19929;SDS011;10127;47.780;9.606;2022-10-23T15:31:58;9.70;;;1.63;;
19929;SDS011;10127;47.780;9.606;2022-10-23T15:34:26;9.52;;;2.03;;
19929;SDS011;10127;47.780;9.606;2022-10-23T15:36:53;3.55;;;1.92;;
19929;SDS011;10127;47.780;9.606;2022-10-23T15:39:25;10.05;;;2.10;;
19929;SDS011;10127;47.780;9.606;2022-10-23T15:41:53;6.18;;;1.95;;
19929;SDS011;10127;47.780;9.606;2022-10-23T15:44:21;4.20;;;2.28;;
19929;SDS011;10127;47.780;9.606;2022-10-23T15:46:48;7.68;;;2.22;;
19929;SDS011;10127;47.780;9.606;2022-10-23T15:49:14;4.63;;;2.15;;
19929;SDS011;10127;47.780;9.606;2022-10-23T15:51:40;12.80;;;2.50;;
19929;SDS011;10127;47.780;9.606;2022-10-23T15:54:07;11.57;;;2.40;;
19929;SDS011;10127;47.780;9.606;2022-10-23T15:56:34;6.07;;;2.25;;
19929;SDS011;10127;47.780;9.606;2022-10-23T15:59:00;6.10;;;2.55;;
19929;SDS011;10127;47.780;9.606;2022-10-23T16:01:26;4.35;;;3.22;;
19929;SDS011;10127;47.780;9.606;2022-10-23T16:03:52;6.03;;;2.20;;
19929;SDS011;10127;47.780;9.606;2022-10-23T16:06:20;4.07;;;1.77;;
19929;SDS011;10127;47.780;9.606;2022-10-23T16:08:46;10.18;;;2.85;;
19929;SDS011;10127;47.780;9.606;2022-10-23T16:11:19;8.52;;;2.15;;
19929;SDS011;10127;47.780;9.606;2022-10-23T16:13:49;7.63;;;2.10;;
19929;SDS011;10127;47.780;9.606;2022-10-23T16:16:16;4.28;;;1.90;;
19929;SDS011;10127;47.780;9.606;2022-10-23T16:18:42;4.82;;;2.13;;
19929;SDS011;10127;47.780;9.606;2022-10-23T16:21:30;7.93;;;2.60;;
19929;SDS011;10127;47.780;9.606;2022-10-23T16:23:59;4.22;;;2.60;;
19929;SDS011;10127;47.780;9.606;2022-10-23T16:26:26;4.47;;;2.35;;
19929;SDS011;10127;47.780;9.606;2022-10-23T16:28:53;6.50;;;2.72;;
19929;SDS011;10127;47.780;9.606;2022-10-23T16:31:19;8.73;;;2.75;;
19929;SDS011;10127;47.780;9.606;2022-10-23T16:33:46;8.52;;;2.53;;
19929;SDS011;10127;47.780;9.606;2022-10-23T16:36:12;6.20;;;2.28;;
19929;SDS011;10127;47.780;9.606;2022-10-23T16:38:37;4.45;;;2.20;;
19929;SDS011;10127;47.780;9.606;2022-10-23T16:41:03;4.38;;;2.40;;
19929;SDS011;10127;47.780;9.606;2022-10-23T16:43:29;3.10;;;2.22;;
19929;SDS011;10127;47.780;9.606;2022-10-23T16:46:11;4.75;;;2.20;;
19929;SDS011;10127;47.780;9.606;2022-10-23T16:48:39;9.93;;;2.85;;
19929;SDS011;10127;47.780;9.606;2022-10-23T16:51:09;8.57;;;2.50;;
19929;SDS011;10127;47.780;9.606;2022-10-23T16:53:36;4.95;;;2.88;;
19929;SDS011;10127;47.780;9.606;2022-10-23T16:56:03;11.32;;;2.92;;
19929;SDS011;10127;47.780;9.606;2022-10-23T16:58:30;7.40;;;2.20;;
19929;SDS011;10127;47.780;9.606;2022-10-23T17:01:00;9.40;;;2.78;;
19929;SDS011;10127;47.780;9.606;2022-10-23T17:03:29;3.85;;;2.50;;
19929;SDS011;10127;47.780;9.606;2022-10-23T17:06:02;8.57;;;2.72;;
19929;SDS011;10127;47.780;9.606;2022-10-23T17:08:29;9.85;;;3.10;;
19929;SDS011;10127;47.780;9.606;2022-10-23T17:11:15;5.45;;;3.50;;
19929;SDS011;10127;47.780;9.606;2022-10-23T17:13:43;8.15;;;4.05;;
19929;SDS011;10127;47.780;9.606;2022-10-23T17:16:19;8.07;;;4.07;;
19929;SDS011;10127;47.780;9.606;2022-10-23T17:19:03;6.13;;;3.58;;
19929;SDS011;10127;47.780;9.606;2022-10-23T17:21:31;12.20;;;4.63;;
19929;SDS011;10127;47.780;9.606;2022-10-23T17:23:59;16.95;;;4.57;;
19929;SDS011;10127;47.780;9.606;2022-10-23T17:26:25;14.13;;;3.95;;
19929;SDS011;10127;47.780;9.606;2022-10-23T17:28:51;14.25;;;3.95;;